^^
Saratoga-Weather Station Historical Data
Daily Summary for October 28, 2021 Units:  Metric    English   Both
Daily Weekly Monthly Yearly Custom
  High: Low: Average:
Temperature: 8.5 °C 6.8 °C 7.6 °C
Dew Point: 7.9 °C 6.4 °C 7 °C
Humidity: 97% 96% 96%
Wind Speed: 0km/h 0km/h 0km/h
Wind Gust: 4.8km/h - -
Wind- -
Pressure: 1022.0 hPa 1020.7 hPa -
Precipitation: 0.0 mm    
Historical Graphs
 
 
Tabular Data for October 28, 2021
Time Temperature Dew Point Pressure Wind Wind Speed Wind Gust Humidity Rainfall Rate (Hourly) solar
00:04 8.5 °C 7.9 °C 1022.0 hPa Calm     96% 0.0 mm 0 W/m2
00:09 8.4 °C 7.8 °C 1022.0 hPa Calm   4.8 km/h 96% 0.0 mm 0 W/m2
00:14 8.4 °C 7.8 °C 1022.0 hPa Calm     96% 0.0 mm 0 W/m2
00:19 8.4 °C 7.8 °C 1021.7 hPa Calm     96% 0.0 mm 0 W/m2
00:24 8.4 °C 7.8 °C 1021.7 hPa Calm     96% 0.0 mm 0 W/m2
00:29 8.3 °C 7.7 °C 1021.7 hPa Calm     96% 0.0 mm 0 W/m2
00:34 8.3 °C 7.7 °C 1021.7 hPa Calm     96% 0.0 mm 0 W/m2
00:39 8.2 °C 7.6 °C 1021.7 hPa Calm     96% 0.0 mm 0 W/m2
00:44 8.1 °C 7.5 °C 1021.7 hPa Calm     96% 0.0 mm 0 W/m2
00:49 8 °C 7.4 °C 1021.7 hPa Calm     96% 0.0 mm 0 W/m2
00:54 7.9 °C 7.3 °C 1021.7 hPa Calm   1.6 km/h 96% 0.0 mm 0 W/m2
00:59 7.8 °C 7.2 °C 1021.3 hPa Calm     96% 0.0 mm 0 W/m2
01:04 7.8 °C 7.2 °C 1021.3 hPa Calm     96% 0.0 mm 0 W/m2
01:09 7.7 °C 7.1 °C 1021.3 hPa Calm     96% 0.0 mm 0 W/m2
01:14 7.7 °C 7.1 °C 1021.3 hPa Calm     96% 0.0 mm 0 W/m2
01:19 7.7 °C 7.1 °C 1021.3 hPa Calm     96% 0.0 mm 0 W/m2
01:24 7.7 °C 7.1 °C 1021.3 hPa Calm     96% 0.0 mm 0 W/m2
01:29 7.7 °C 7.3 °C 1021.3 hPa Calm     97% 0.0 mm 0 W/m2
01:34 7.7 °C 7.3 °C 1021.3 hPa Calm     97% 0.0 mm 0 W/m2
01:39 7.7 °C 7.1 °C 1021.3 hPa Calm     96% 0.0 mm 0 W/m2
01:44 7.6 °C 7 °C 1021.3 hPa Calm     96% 0.0 mm 0 W/m2
01:49 7.6 °C 7 °C 1021.3 hPa Calm     96% 0.0 mm 0 W/m2
01:54 7.6 °C 7 °C 1021.3 hPa Calm     96% 0.0 mm 0 W/m2
01:59 7.4 °C 6.8 °C 1021.3 hPa Calm     96% 0.0 mm 0 W/m2
02:04 7.4 °C 6.8 °C 1021.0 hPa Calm     96% 0.0 mm 0 W/m2
02:09 7.3 °C 6.9 °C 1021.0 hPa Calm     97% 0.0 mm 0 W/m2
02:14 7.3 °C 6.9 °C 1021.0 hPa Calm     97% 0.0 mm 0 W/m2
02:19 7.3 °C 6.7 °C 1021.0 hPa Calm     96% 0.0 mm 0 W/m2
02:24 7.2 °C 6.6 °C 1021.0 hPa Calm     96% 0.0 mm 0 W/m2
02:29 7.2 °C 6.6 °C 1021.0 hPa Calm     96% 0.0 mm 0 W/m2
02:34 7.1 °C 6.7 °C 1020.7 hPa Calm     97% 0.0 mm 0 W/m2
02:39 7.1 °C 6.7 °C 1021.0 hPa Calm     97% 0.0 mm 0 W/m2
02:44 7 °C 6.6 °C 1020.7 hPa Calm     97% 0.0 mm 0 W/m2
02:49 7.1 °C 6.7 °C 1020.7 hPa Calm     97% 0.0 mm 0 W/m2
02:54 7 °C 6.4 °C 1020.7 hPa Calm     96% 0.0 mm 0 W/m2
02:59 7 °C 6.6 °C 1020.7 hPa Calm     97% 0.0 mm 0 W/m2
03:04 6.9 °C 6.5 °C 1020.7 hPa Calm     97% 0.0 mm 0 W/m2
03:09 6.9 °C 6.5 °C 1020.7 hPa Calm     97% 0.0 mm 0 W/m2
03:15 6.9 °C 6.5 °C 1020.7 hPa Calm     97% 0.0 mm 0 W/m2
03:20 6.8 °C 6.4 °C 1020.7 hPa Calm     97% 0.0 mm 0 W/m2
03:25 6.8 °C 6.4 °C 1020.7 hPa Calm     97% 0.0 mm 0 W/m2
03:30 6.8 °C 6.4 °C 1020.7 hPa Calm     97% 0.0 mm 0 W/m2
Juneau County Weather
Compliments of Weather Underground - 2 mb